sensor_id;sensor_type;location;lat;lon;timestamp;P1;durP1;ratioP1;P2;durP2;ratioP2
13475;SDS011;6810;63.824;20.288;2023-04-30T00:00:01;6.23;;;2.50;;
13475;SDS011;6810;63.824;20.288;2023-04-30T00:02:48;5.07;;;2.57;;
13475;SDS011;6810;63.824;20.288;2023-04-30T00:05:36;4.03;;;2.00;;
13475;SDS011;6810;63.824;20.288;2023-04-30T00:08:23;4.80;;;2.10;;
13475;SDS011;6810;63.824;20.288;2023-04-30T00:11:10;9.80;;;2.30;;
13475;SDS011;6810;63.824;20.288;2023-04-30T00:13:57;4.57;;;2.13;;
13475;SDS011;6810;63.824;20.288;2023-04-30T00:16:44;6.23;;;2.20;;
13475;SDS011;6810;63.824;20.288;2023-04-30T00:19:31;5.63;;;2.10;;
13475;SDS011;6810;63.824;20.288;2023-04-30T00:22:19;2.97;;;2.10;;
13475;SDS011;6810;63.824;20.288;2023-04-30T00:25:06;3.77;;;1.80;;
13475;SDS011;6810;63.824;20.288;2023-04-30T00:27:53;3.67;;;1.40;;
13475;SDS011;6810;63.824;20.288;2023-04-30T00:30:40;6.63;;;2.00;;
13475;SDS011;6810;63.824;20.288;2023-04-30T00:33:27;3.40;;;2.00;;
13475;SDS011;6810;63.824;20.288;2023-04-30T00:36:14;6.83;;;1.93;;
13475;SDS011;6810;63.824;20.288;2023-04-30T00:39:02;5.13;;;1.90;;
13475;SDS011;6810;63.824;20.288;2023-04-30T00:41:49;4.60;;;1.97;;
13475;SDS011;6810;63.824;20.288;2023-04-30T00:44:36;8.23;;;2.17;;
13475;SDS011;6810;63.824;20.288;2023-04-30T00:47:23;11.27;;;2.17;;
13475;SDS011;6810;63.824;20.288;2023-04-30T00:50:10;3.50;;;1.90;;
13475;SDS011;6810;63.824;20.288;2023-04-30T00:52:58;4.67;;;1.60;;
13475;SDS011;6810;63.824;20.288;2023-04-30T00:55:46;3.80;;;1.60;;
13475;SDS011;6810;63.824;20.288;2023-04-30T00:58:34;4.63;;;1.67;;
13475;SDS011;6810;63.824;20.288;2023-04-30T01:01:25;4.60;;;1.73;;
13475;SDS011;6810;63.824;20.288;2023-04-30T01:04:13;4.57;;;1.67;;
13475;SDS011;6810;63.824;20.288;2023-04-30T01:07:00;2.30;;;1.43;;
13475;SDS011;6810;63.824;20.288;2023-04-30T01:09:47;1.87;;;1.13;;
13475;SDS011;6810;63.824;20.288;2023-04-30T01:12:40;2.23;;;1.13;;
13475;SDS011;6810;63.824;20.288;2023-04-30T01:15:57;2.03;;;1.20;;
13475;SDS011;6810;63.824;20.288;2023-04-30T01:18:51;6.20;;;1.57;;
13475;SDS011;6810;63.824;20.288;2023-04-30T01:21:42;2.90;;;1.40;;
13475;SDS011;6810;63.824;20.288;2023-04-30T01:24:48;2.40;;;1.33;;
13475;SDS011;6810;63.824;20.288;2023-04-30T01:30:55;2.80;;;1.37;;
13475;SDS011;6810;63.824;20.288;2023-04-30T01:33:44;4.63;;;1.70;;
13475;SDS011;6810;63.824;20.288;2023-04-30T01:36:38;2.00;;;1.30;;
13475;SDS011;6810;63.824;20.288;2023-04-30T01:40:12;2.07;;;1.70;;
13475;SDS011;6810;63.824;20.288;2023-04-30T01:43:00;3.20;;;1.13;;
13475;SDS011;6810;63.824;20.288;2023-04-30T01:46:13;6.97;;;1.60;;
13475;SDS011;6810;63.824;20.288;2023-04-30T01:52:30;3.17;;;1.53;;
13475;SDS011;6810;63.824;20.288;2023-04-30T01:58:45;7.73;;;1.40;;
13475;SDS011;6810;63.824;20.288;2023-04-30T02:01:34;1.73;;;1.07;;
13475;SDS011;6810;63.824;20.288;2023-04-30T02:04:22;3.73;;;1.60;;
13475;SDS011;6810;63.824;20.288;2023-04-30T02:07:09;4.73;;;1.43;;
13475;SDS011;6810;63.824;20.288;2023-04-30T02:09:58;3.37;;;1.27;;
13475;SDS011;6810;63.824;20.288;2023-04-30T02:12:45;2.90;;;1.20;;
13475;SDS011;6810;63.824;20.288;2023-04-30T02:15:32;2.67;;;1.40;;
13475;SDS011;6810;63.824;20.288;2023-04-30T02:18:19;2.47;;;1.30;;
13475;SDS011;6810;63.824;20.288;2023-04-30T02:21:06;2.93;;;1.60;;
13475;SDS011;6810;63.824;20.288;2023-04-30T02:23:53;2.50;;;1.10;;
13475;SDS011;6810;63.824;20.288;2023-04-30T02:26:40;1.47;;;1.10;;
13475;SDS011;6810;63.824;20.288;2023-04-30T02:29:27;3.50;;;1.63;;
13475;SDS011;6810;63.824;20.288;2023-04-30T02:32:14;4.67;;;1.47;;
13475;SDS011;6810;63.824;20.288;2023-04-30T02:35:02;2.60;;;1.30;;
13475;SDS011;6810;63.824;20.288;2023-04-30T02:37:49;2.43;;;1.13;;
13475;SDS011;6810;63.824;20.288;2023-04-30T02:40:36;2.63;;;1.40;;
13475;SDS011;6810;63.824;20.288;2023-04-30T02:43:23;2.10;;;1.20;;
13475;SDS011;6810;63.824;20.288;2023-04-30T02:46:11;1.33;;;1.23;;
13475;SDS011;6810;63.824;20.288;2023-04-30T02:48:58;1.97;;;1.33;;
13475;SDS011;6810;63.824;20.288;2023-04-30T02:51:45;1.33;;;1.10;;
13475;SDS011;6810;63.824;20.288;2023-04-30T02:54:32;2.60;;;1.20;;
13475;SDS011;6810;63.824;20.288;2023-04-30T02:57:19;1.90;;;1.40;;
13475;SDS011;6810;63.824;20.288;2023-04-30T03:00:06;3.63;;;1.20;;
13475;SDS011;6810;63.824;20.288;2023-04-30T03:02:54;3.30;;;1.30;;
13475;SDS011;6810;63.824;20.288;2023-04-30T03:05:42;1.77;;;1.27;;
13475;SDS011;6810;63.824;20.288;2023-04-30T03:08:29;2.17;;;1.30;;
13475;SDS011;6810;63.824;20.288;2023-04-30T03:11:17;1.40;;;1.20;;
13475;SDS011;6810;63.824;20.288;2023-04-30T03:14:04;2.07;;;1.23;;
13475;SDS011;6810;63.824;20.288;2023-04-30T03:16:51;2.10;;;0.93;;
13475;SDS011;6810;63.824;20.288;2023-04-30T03:19:38;2.93;;;1.30;;
13475;SDS011;6810;63.824;20.288;2023-04-30T03:22:25;2.67;;;0.87;;
13475;SDS011;6810;63.824;20.288;2023-04-30T03:25:13;3.83;;;1.00;;
13475;SDS011;6810;63.824;20.288;2023-04-30T03:28:00;1.87;;;1.23;;
13475;SDS011;6810;63.824;20.288;2023-04-30T03:30:47;2.33;;;1.17;;
13475;SDS011;6810;63.824;20.288;2023-04-30T03:33:34;1.13;;;0.90;;
13475;SDS011;6810;63.824;20.288;2023-04-30T03:36:21;1.67;;;1.20;;
13475;SDS011;6810;63.824;20.288;2023-04-30T03:39:08;1.10;;;1.00;;
13475;SDS011;6810;63.824;20.288;2023-04-30T03:41:56;2.20;;;1.33;;
13475;SDS011;6810;63.824;20.288;2023-04-30T03:44:43;1.63;;;0.90;;
13475;SDS011;6810;63.824;20.288;2023-04-30T03:47:30;2.57;;;0.80;;
13475;SDS011;6810;63.824;20.288;2023-04-30T03:50:17;1.50;;;0.93;;
13475;SDS011;6810;63.824;20.288;2023-04-30T03:53:05;1.87;;;0.97;;
13475;SDS011;6810;63.824;20.288;2023-04-30T03:55:52;3.10;;;1.00;;
13475;SDS011;6810;63.824;20.288;2023-04-30T03:58:41;1.77;;;0.90;;
13475;SDS011;6810;63.824;20.288;2023-04-30T04:01:30;1.27;;;0.90;;
13475;SDS011;6810;63.824;20.288;2023-04-30T04:04:17;4.83;;;0.97;;
13475;SDS011;6810;63.824;20.288;2023-04-30T04:07:04;3.70;;;1.07;;
13475;SDS011;6810;63.824;20.288;2023-04-30T04:09:51;1.07;;;0.73;;
13475;SDS011;6810;63.824;20.288;2023-04-30T04:12:38;1.80;;;1.10;;
13475;SDS011;6810;63.824;20.288;2023-04-30T04:15:25;0.70;;;0.70;;
13475;SDS011;6810;63.824;20.288;2023-04-30T04:18:13;1.47;;;1.00;;
13475;SDS011;6810;63.824;20.288;2023-04-30T04:21:00;2.20;;;1.20;;
13475;SDS011;6810;63.824;20.288;2023-04-30T04:23:47;1.10;;;0.90;;
13475;SDS011;6810;63.824;20.288;2023-04-30T04:26:34;1.50;;;0.83;;
13475;SDS011;6810;63.824;20.288;2023-04-30T04:29:22;1.67;;;0.57;;
13475;SDS011;6810;63.824;20.288;2023-04-30T04:32:09;1.00;;;0.90;;
13475;SDS011;6810;63.824;20.288;2023-04-30T04:34:56;1.53;;;0.80;;
13475;SDS011;6810;63.824;20.288;2023-04-30T04:37:44;0.93;;;0.60;;
13475;SDS011;6810;63.824;20.288;2023-04-30T04:40:31;0.60;;;0.53;;
13475;SDS011;6810;63.824;20.288;2023-04-30T04:43:19;1.43;;;0.70;;
13475;SDS011;6810;63.824;20.288;2023-04-30T04:46:06;0.70;;;0.53;;
13475;SDS011;6810;63.824;20.288;2023-04-30T04:48:53;0.80;;;0.60;;
13475;SDS011;6810;63.824;20.288;2023-04-30T04:51:40;2.50;;;1.00;;
13475;SDS011;6810;63.824;20.288;2023-04-30T04:54:27;1.00;;;0.73;;
13475;SDS011;6810;63.824;20.288;2023-04-30T04:57:14;0.97;;;0.73;;
13475;SDS011;6810;63.824;20.288;2023-04-30T05:00:01;3.07;;;0.87;;
13475;SDS011;6810;63.824;20.288;2023-04-30T05:02:49;1.33;;;0.63;;
13475;SDS011;6810;63.824;20.288;2023-04-30T05:05:36;0.97;;;0.70;;
13475;SDS011;6810;63.824;20.288;2023-04-30T05:08:24;1.87;;;0.50;;
13475;SDS011;6810;63.824;20.288;2023-04-30T05:11:11;1.37;;;0.50;;
13475;SDS011;6810;63.824;20.288;2023-04-30T05:13:58;1.10;;;0.70;;
13475;SDS011;6810;63.824;20.288;2023-04-30T05:16:45;0.50;;;0.50;;
13475;SDS011;6810;63.824;20.288;2023-04-30T05:19:33;0.80;;;0.50;;
13475;SDS011;6810;63.824;20.288;2023-04-30T05:22:20;0.57;;;0.47;;
13475;SDS011;6810;63.824;20.288;2023-04-30T05:25:07;2.17;;;0.70;;
13475;SDS011;6810;63.824;20.288;2023-04-30T05:27:55;1.97;;;0.60;;
13475;SDS011;6810;63.824;20.288;2023-04-30T05:30:42;1.43;;;0.70;;
13475;SDS011;6810;63.824;20.288;2023-04-30T05:33:30;0.73;;;0.60;;
13475;SDS011;6810;63.824;20.288;2023-04-30T05:36:17;0.60;;;0.57;;
13475;SDS011;6810;63.824;20.288;2023-04-30T05:39:04;0.90;;;0.50;;
13475;SDS011;6810;63.824;20.288;2023-04-30T05:41:51;0.40;;;0.40;;
13475;SDS011;6810;63.824;20.288;2023-04-30T05:44:39;1.13;;;0.50;;
13475;SDS011;6810;63.824;20.288;2023-04-30T05:47:27;0.50;;;0.50;;
13475;SDS011;6810;63.824;20.288;2023-04-30T05:50:14;0.40;;;0.40;;
13475;SDS011;6810;63.824;20.288;2023-04-30T05:53:01;0.50;;;0.40;;
13475;SDS011;6810;63.824;20.288;2023-04-30T05:55:49;0.40;;;0.40;;
13475;SDS011;6810;63.824;20.288;2023-04-30T05:58:36;0.93;;;0.53;;
13475;SDS011;6810;63.824;20.288;2023-04-30T06:01:24;2.30;;;0.30;;
13475;SDS011;6810;63.824;20.288;2023-04-30T06:04:11;0.70;;;0.50;;
13475;SDS011;6810;63.824;20.288;2023-04-30T06:06:58;0.60;;;0.60;;
13475;SDS011;6810;63.824;20.288;2023-04-30T06:09:45;0.50;;;0.40;;
13475;SDS011;6810;63.824;20.288;2023-04-30T06:12:33;1.33;;;0.50;;
13475;SDS011;6810;63.824;20.288;2023-04-30T06:15:20;1.10;;;0.40;;
13475;SDS011;6810;63.824;20.288;2023-04-30T06:18:08;0.70;;;0.60;;
13475;SDS011;6810;63.824;20.288;2023-04-30T06:20:55;1.27;;;0.40;;
13475;SDS011;6810;63.824;20.288;2023-04-30T06:23:42;2.53;;;0.40;;
13475;SDS011;6810;63.824;20.288;2023-04-30T06:26:29;1.60;;;0.40;;
13475;SDS011;6810;63.824;20.288;2023-04-30T06:29:16;1.50;;;0.47;;
13475;SDS011;6810;63.824;20.288;2023-04-30T06:32:03;0.93;;;0.30;;
13475;SDS011;6810;63.824;20.288;2023-04-30T06:34:51;0.67;;;0.37;;
13475;SDS011;6810;63.824;20.288;2023-04-30T06:37:38;1.13;;;0.30;;
13475;SDS011;6810;63.824;20.288;2023-04-30T06:40:25;1.73;;;0.50;;
13475;SDS011;6810;63.824;20.288;2023-04-30T06:43:12;1.37;;;0.40;;
13475;SDS011;6810;63.824;20.288;2023-04-30T06:45:59;0.30;;;0.17;;
13475;SDS011;6810;63.824;20.288;2023-04-30T06:48:46;1.60;;;0.33;;
13475;SDS011;6810;63.824;20.288;2023-04-30T06:51:33;1.60;;;0.40;;
13475;SDS011;6810;63.824;20.288;2023-04-30T06:54:20;2.97;;;0.40;;
13475;SDS011;6810;63.824;20.288;2023-04-30T06:57:08;1.37;;;0.50;;
13475;SDS011;6810;63.824;20.288;2023-04-30T06:59:55;1.03;;;0.33;;
13475;SDS011;6810;63.824;20.288;2023-04-30T07:02:42;0.37;;;0.23;;
13475;SDS011;6810;63.824;20.288;2023-04-30T07:05:30;0.57;;;0.30;;
13475;SDS011;6810;63.824;20.288;2023-04-30T07:08:17;0.87;;;0.40;;
13475;SDS011;6810;63.824;20.288;2023-04-30T07:11:04;1.43;;;0.30;;
13475;SDS011;6810;63.824;20.288;2023-04-30T07:13:51;0.20;;;0.20;;
13475;SDS011;6810;63.824;20.288;2023-04-30T07:16:38;1.87;;;0.30;;
13475;SDS011;6810;63.824;20.288;2023-04-30T07:19:25;1.23;;;0.40;;
13475;SDS011;6810;63.824;20.288;2023-04-30T07:22:12;3.50;;;1.60;;
13475;SDS011;6810;63.824;20.288;2023-04-30T07:24:59;0.50;;;0.40;;
13475;SDS011;6810;63.824;20.288;2023-04-30T07:27:47;0.83;;;0.40;;
13475;SDS011;6810;63.824;20.288;2023-04-30T07:30:34;0.53;;;0.30;;
13475;SDS011;6810;63.824;20.288;2023-04-30T07:33:21;0.47;;;0.30;;
13475;SDS011;6810;63.824;20.288;2023-04-30T07:36:08;1.67;;;0.40;;
13475;SDS011;6810;63.824;20.288;2023-04-30T07:38:55;0.77;;;0.40;;
13475;SDS011;6810;63.824;20.288;2023-04-30T07:41:42;0.37;;;0.30;;
13475;SDS011;6810;63.824;20.288;2023-04-30T07:44:30;1.63;;;0.40;;
13475;SDS011;6810;63.824;20.288;2023-04-30T07:47:17;2.13;;;0.30;;
13475;SDS011;6810;63.824;20.288;2023-04-30T07:50:04;0.50;;;0.27;;
13475;SDS011;6810;63.824;20.288;2023-04-30T07:52:52;1.17;;;0.30;;
13475;SDS011;6810;63.824;20.288;2023-04-30T07:55:39;2.30;;;0.47;;
13475;SDS011;6810;63.824;20.288;2023-04-30T07:58:26;0.40;;;0.30;;
13475;SDS011;6810;63.824;20.288;2023-04-30T08:01:14;1.60;;;0.30;;
13475;SDS011;6810;63.824;20.288;2023-04-30T08:04:01;0.67;;;0.20;;
13475;SDS011;6810;63.824;20.288;2023-04-30T08:06:48;0.40;;;0.30;;
13475;SDS011;6810;63.824;20.288;2023-04-30T08:09:35;0.43;;;0.30;;
13475;SDS011;6810;63.824;20.288;2023-04-30T08:12:23;0.83;;;0.30;;
